sensor_id;sensor_type;location;lat;lon;timestamp;pressure;altitude;pressure_sealevel;temperature;humidity
56668;BME280;42542;48.360;10.958;2023-04-16T00:02:11;95904.72;;;5.96;100.00
56668;BME280;42542;48.360;10.958;2023-04-16T00:05:13;95899.56;;;5.94;100.00
56668;BME280;42542;48.360;10.958;2023-04-16T00:08:17;95909.19;;;5.95;100.00
56668;BME280;42542;48.360;10.958;2023-04-16T00:11:20;95916.84;;;5.98;100.00
56668;BME280;42542;48.360;10.958;2023-04-16T00:14:23;95916.19;;;5.96;100.00
56668;BME280;42542;48.360;10.958;2023-04-16T00:17:25;95912.13;;;5.92;100.00
56668;BME280;42542;48.360;10.958;2023-04-16T00:20:29;95915.59;;;5.93;100.00
56668;BME280;42542;48.360;10.958;2023-04-16T00:23:31;95913.94;;;5.92;100.00
56668;BME280;42542;48.360;10.958;2023-04-16T00:26:33;95923.88;;;5.90;100.00
56668;BME280;42542;48.360;10.958;2023-04-16T00:29:36;95917.84;;;5.87;100.00
56668;BME280;42542;48.360;10.958;2023-04-16T00:32:40;95914.47;;;5.85;100.00
56668;BME280;42542;48.360;10.958;2023-04-16T00:35:44;95918.09;;;5.84;100.00
56668;BME280;42542;48.360;10.958;2023-04-16T00:38:47;95919.09;;;5.83;100.00
56668;BME280;42542;48.360;10.958;2023-04-16T00:41:49;95921.75;;;5.83;100.00
56668;BME280;42542;48.360;10.958;2023-04-16T00:44:53;95921.75;;;5.83;100.00
56668;BME280;42542;48.360;10.958;2023-04-16T00:47:56;95919.09;;;5.83;100.00
56668;BME280;42542;48.360;10.958;2023-04-16T00:51:03;95920.91;;;5.83;100.00
56668;BME280;42542;48.360;10.958;2023-04-16T00:54:05;95928.88;;;5.83;100.00
56668;BME280;42542;48.360;10.958;2023-04-16T00:57:08;95926.22;;;5.83;100.00
56668;BME280;42542;48.360;10.958;2023-04-16T01:00:11;95923.56;;;5.83;100.00
56668;BME280;42542;48.360;10.958;2023-04-16T01:03:13;95926.22;;;5.83;100.00
56668;BME280;42542;48.360;10.958;2023-04-16T01:06:16;95924.66;;;5.80;100.00
56668;BME280;42542;48.360;10.958;2023-04-16T01:09:19;95929.41;;;5.86;100.00
56668;BME280;42542;48.360;10.958;2023-04-16T01:12:22;95927.59;;;5.87;100.00
56668;BME280;42542;48.360;10.958;2023-04-16T01:15:26;95921.44;;;5.86;100.00
56668;BME280;42542;48.360;10.958;2023-04-16T01:18:28;95928.47;;;5.87;100.00
56668;BME280;42542;48.360;10.958;2023-04-16T01:21:30;95926.66;;;5.88;100.00
56668;BME280;42542;48.360;10.958;2023-04-16T01:24:32;95930.97;;;5.89;100.00
56668;BME280;42542;48.360;10.958;2023-04-16T01:27:34;95918.56;;;5.90;100.00
56668;BME280;42542;48.360;10.958;2023-04-16T01:30:37;95921.03;;;5.81;100.00
56668;BME280;42542;48.360;10.958;2023-04-16T01:34:00;95922.41;;;5.85;100.00
56668;BME280;42542;48.360;10.958;2023-04-16T01:37:02;95923.25;;;5.86;100.00
56668;BME280;42542;48.360;10.958;2023-04-16T01:40:06;95927.59;;;5.87;100.00
56668;BME280;42542;48.360;10.958;2023-04-16T01:43:08;95928.47;;;5.87;100.00
56668;BME280;42542;48.360;10.958;2023-04-16T01:46:13;95924.00;;;5.88;100.00
56668;BME280;42542;48.360;10.958;2023-04-16T01:49:15;95933.75;;;5.87;100.00
56668;BME280;42542;48.360;10.958;2023-04-16T01:52:18;95925.91;;;5.86;100.00
56668;BME280;42542;48.360;10.958;2023-04-16T01:55:19;95932.91;;;5.87;100.00
56668;BME280;42542;48.360;10.958;2023-04-16T01:58:23;95932.06;;;5.86;100.00
56668;BME280;42542;48.360;10.958;2023-04-16T02:01:26;95928.56;;;5.86;100.00
56668;BME280;42542;48.360;10.958;2023-04-16T02:04:31;95929.53;;;5.85;100.00
56668;BME280;42542;48.360;10.958;2023-04-16T02:07:32;95933.16;;;5.84;100.00
56668;BME280;42542;48.360;10.958;2023-04-16T02:10:35;95934.16;;;5.83;100.00
56668;BME280;42542;48.360;10.958;2023-04-16T02:13:37;95932.50;;;5.82;100.00
56668;BME280;42542;48.360;10.958;2023-04-16T02:16:40;95934.28;;;5.81;100.00
56668;BME280;42542;48.360;10.958;2023-04-16T02:19:53;95935.41;;;5.79;100.00
56668;BME280;42542;48.360;10.958;2023-04-16T02:22:56;95922.56;;;5.74;100.00
56668;BME280;42542;48.360;10.958;2023-04-16T02:25:59;95942.53;;;5.78;100.00
56668;BME280;42542;48.360;10.958;2023-04-16T02:29:02;95937.22;;;5.78;100.00
56668;BME280;42542;48.360;10.958;2023-04-16T02:32:11;95939.88;;;5.78;100.00
56668;BME280;42542;48.360;10.958;2023-04-16T02:35:17;95939.03;;;5.78;100.00
56668;BME280;42542;48.360;10.958;2023-04-16T02:38:19;95933.84;;;5.76;100.00
56668;BME280;42542;48.360;10.958;2023-04-16T02:41:21;95934.69;;;5.77;100.00
56668;BME280;42542;48.360;10.958;2023-04-16T02:44:24;95928.84;;;5.73;100.00
56668;BME280;42542;48.360;10.958;2023-04-16T02:47:27;95930.22;;;5.77;100.00
56668;BME280;42542;48.360;10.958;2023-04-16T02:50:29;95933.72;;;5.78;100.00
56668;BME280;42542;48.360;10.958;2023-04-16T02:53:31;95941.69;;;5.78;100.00
56668;BME280;42542;48.360;10.958;2023-04-16T02:56:33;95942.53;;;5.78;100.00
56668;BME280;42542;48.360;10.958;2023-04-16T02:59:35;95930.22;;;5.77;100.00
56668;BME280;42542;48.360;10.958;2023-04-16T03:02:37;95938.91;;;5.79;100.00
56668;BME280;42542;48.360;10.958;2023-04-16T03:05:39;95941.53;;;5.79;100.00
56668;BME280;42542;48.360;10.958;2023-04-16T03:08:42;95940.56;;;5.80;100.00
56668;BME280;42542;48.360;10.958;2023-04-16T03:11:43;95934.56;;;5.78;100.00
56668;BME280;42542;48.360;10.958;2023-04-16T03:14:46;95938.06;;;5.79;100.00
56668;BME280;42542;48.360;10.958;2023-04-16T03:17:48;95946.84;;;5.79;100.00
56668;BME280;42542;48.360;10.958;2023-04-16T03:20:51;95947.81;;;5.78;100.00
56668;BME280;42542;48.360;10.958;2023-04-16T03:23:56;95938.50;;;5.74;100.00
56668;BME280;42542;48.360;10.958;2023-04-16T03:26:59;95948.53;;;5.80;100.00
56668;BME280;42542;48.360;10.958;2023-04-16T03:30:03;95951.19;;;5.80;100.00
56668;BME280;42542;48.360;10.958;2023-04-16T03:33:08;95949.50;;;5.79;100.00
56668;BME280;42542;48.360;10.958;2023-04-16T03:36:10;95953.13;;;5.78;100.00
56668;BME280;42542;48.360;10.958;2023-04-16T03:39:11;95957.47;;;5.79;100.00
56668;BME280;42542;48.360;10.958;2023-04-16T03:42:14;95953.97;;;5.79;100.00
56668;BME280;42542;48.360;10.958;2023-04-16T03:45:17;95963.75;;;5.78;100.00
56668;BME280;42542;48.360;10.958;2023-04-16T03:48:20;95964.56;;;5.79;100.00
56668;BME280;42542;48.360;10.958;2023-04-16T03:51:23;95964.56;;;5.79;100.00
56668;BME280;42542;48.360;10.958;2023-04-16T03:54:26;95952.72;;;5.73;100.00
56668;BME280;42542;48.360;10.958;2023-04-16T03:57:43;95973.50;;;5.78;100.00
56668;BME280;42542;48.360;10.958;2023-04-16T04:00:47;95964.16;;;5.74;100.00
56668;BME280;42542;48.360;10.958;2023-04-16T04:03:51;95969.03;;;5.78;100.00
56668;BME280;42542;48.360;10.958;2023-04-16T04:06:53;95970.00;;;5.77;100.00
56668;BME280;42542;48.360;10.958;2023-04-16T04:09:57;95975.19;;;5.79;100.00
56668;BME280;42542;48.360;10.958;2023-04-16T04:13:03;95969.88;;;5.79;100.00
56668;BME280;42542;48.360;10.958;2023-04-16T04:16:07;95974.78;;;5.83;100.00
56668;BME280;42542;48.360;10.958;2023-04-16T04:19:09;95973.94;;;5.83;100.00
56668;BME280;42542;48.360;10.958;2023-04-16T04:22:12;95976.44;;;5.84;100.00
56668;BME280;42542;48.360;10.958;2023-04-16T04:25:15;95965.56;;;5.78;100.00
56668;BME280;42542;48.360;10.958;2023-04-16T04:28:17;95980.91;;;5.84;100.00
56668;BME280;42542;48.360;10.958;2023-04-16T04:31:19;95977.28;;;5.85;100.00
56668;BME280;42542;48.360;10.958;2023-04-16T04:34:22;95976.31;;;5.86;100.00
56668;BME280;42542;48.360;10.958;2023-04-16T04:37:30;95974.63;;;5.85;100.00
56668;BME280;42542;48.360;10.958;2023-04-16T04:40:33;95983.28;;;5.87;100.00
56668;BME280;42542;48.360;10.958;2023-04-16T04:43:35;95982.44;;;5.86;100.00
56668;BME280;42542;48.360;10.958;2023-04-16T04:46:39;95985.09;;;5.86;100.00
56668;BME280;42542;48.360;10.958;2023-04-16T04:49:41;95985.00;;;5.88;100.00
56668;BME280;42542;48.360;10.958;2023-04-16T04:52:47;95995.47;;;5.90;100.00
56668;BME280;42542;48.360;10.958;2023-04-16T04:55:49;96000.78;;;5.90;100.00
56668;BME280;42542;48.360;10.958;2023-04-16T04:58:58;95994.50;;;5.91;100.00
56668;BME280;42542;48.360;10.958;2023-04-16T05:02:02;96004.97;;;5.92;100.00
56668;BME280;42542;48.360;10.958;2023-04-16T05:05:09;96005.78;;;5.93;100.00
56668;BME280;42542;48.360;10.958;2023-04-16T05:08:12;95996.16;;;5.92;100.00
56668;BME280;42542;48.360;10.958;2023-04-16T05:11:16;95999.25;;;5.97;100.00
56668;BME280;42542;48.360;10.958;2023-04-16T05:14:18;96000.78;;;5.99;100.00
56668;BME280;42542;48.360;10.958;2023-04-16T05:17:23;96006.91;;;6.00;100.00
56668;BME280;42542;48.360;10.958;2023-04-16T05:20:27;96006.38;;;5.96;100.00
56668;BME280;42542;48.360;10.958;2023-04-16T05:23:30;96004.25;;;6.00;100.00
56668;BME280;42542;48.360;10.958;2023-04-16T05:26:32;96011.25;;;6.01;100.00
56668;BME280;42542;48.360;10.958;2023-04-16T05:29:35;96007.75;;;6.00;100.00
56668;BME280;42542;48.360;10.958;2023-04-16T05:32:39;96006.91;;;6.00;100.00
56668;BME280;42542;48.360;10.958;2023-04-16T05:35:43;96015.31;;;6.05;100.00
56668;BME280;42542;48.360;10.958;2023-04-16T05:38:45;96011.66;;;6.06;100.00
56668;BME280;42542;48.360;10.958;2023-04-16T05:41:47;96015.72;;;6.10;100.00
56668;BME280;42542;48.360;10.958;2023-04-16T05:44:49;96021.75;;;6.12;100.00
56668;BME280;42542;48.360;10.958;2023-04-16T05:47:52;96021.31;;;6.16;100.00
56668;BME280;42542;48.360;10.958;2023-04-16T05:50:54;96025.53;;;6.19;100.00
56668;BME280;42542;48.360;10.958;2023-04-16T05:53:57;96026.19;;;6.21;100.00
56668;BME280;42542;48.360;10.958;2023-04-16T05:57:04;96023.53;;;6.21;100.00
56668;BME280;42542;48.360;10.958;2023-04-16T06:00:07;96029.97;;;6.28;100.00
56668;BME280;42542;48.360;10.958;2023-04-16T06:03:17;96034.44;;;6.27;100.00
56668;BME280;42542;48.360;10.958;2023-04-16T06:06:24;96029.81;;;6.30;100.00
56668;BME280;42542;48.360;10.958;2023-04-16T06:09:35;96032.63;;;6.28;100.00
56668;BME280;42542;48.360;10.958;2023-04-16T06:12:42;96037.53;;;6.33;100.00
56668;BME280;42542;48.360;10.958;2023-04-16T06:15:45;96034.31;;;6.29;100.00
56668;BME280;42542;48.360;10.958;2023-04-16T06:18:48;96038.19;;;6.35;100.00
56668;BME280;42542;48.360;10.958;2023-04-16T06:21:59;96041.44;;;6.38;100.00
56668;BME280;42542;48.360;10.958;2023-04-16T06:25:01;96039.88;;;6.36;100.00
56668;BME280;42542;48.360;10.958;2023-04-16T06:28:03;96037.94;;;6.38;100.00
56668;BME280;42542;48.360;10.958;2023-04-16T06:31:06;96045.75;;;6.39;100.00
56668;BME280;42542;48.360;10.958;2023-04-16T06:34:11;96051.75;;;6.41;100.00
56668;BME280;42542;48.360;10.958;2023-04-16T06:37:13;96048.97;;;6.43;100.00
56668;BME280;42542;48.360;10.958;2023-04-16T06:40:21;96050.50;;;6.45;100.00
56668;BME280;42542;48.360;10.958;2023-04-16T06:43:24;96049.66;;;6.45;100.00
56668;BME280;42542;48.360;10.958;2023-04-16T06:46:29;96052.19;;;6.46;100.00
56668;BME280;42542;48.360;10.958;2023-04-16T06:49:33;96045.75;;;6.49;100.00
56668;BME280;42542;48.360;10.958;2023-04-16T06:52:36;96039.31;;;6.51;100.00
56668;BME280;42542;48.360;10.958;2023-04-16T06:55:39;96039.44;;;6.50;100.00
56668;BME280;42542;48.360;10.958;2023-04-16T06:58:42;96043.38;;;6.55;100.00
56668;BME280;42542;48.360;10.958;2023-04-16T07:01:44;96046.56;;;6.59;100.00
56668;BME280;42542;48.360;10.958;2023-04-16T07:04:48;96038.59;;;6.59;100.00
56668;BME280;42542;48.360;10.958;2023-04-16T07:07:53;96049.50;;;6.65;100.00
56668;BME280;42542;48.360;10.958;2023-04-16T07:11:01;96036.53;;;6.62;100.00
56668;BME280;42542;48.360;10.958;2023-04-16T07:14:03;96052.28;;;6.74;100.00
56668;BME280;42542;48.360;10.958;2023-04-16T07:17:06;96054.69;;;6.77;100.00
56668;BME280;42542;48.360;10.958;2023-04-16T07:20:09;96049.19;;;6.78;100.00
56668;BME280;42542;48.360;10.958;2023-04-16T07:23:12;96048.78;;;6.83;100.00
56668;BME280;42542;48.360;10.958;2023-04-16T07:26:14;96043.47;;;6.83;100.00
56668;BME280;42542;48.360;10.958;2023-04-16T07:29:18;96047.22;;;6.90;100.00
56668;BME280;42542;48.360;10.958;2023-04-16T07:32:24;96046.94;;;6.93;100.00
56668;BME280;42542;48.360;10.958;2023-04-16T07:35:27;96051.81;;;6.97;100.00
56668;BME280;42542;48.360;10.958;2023-04-16T07:38:29;96047.19;;;6.99;100.00
56668;BME280;42542;48.360;10.958;2023-04-16T07:41:31;96059.22;;;7.03;100.00
56668;BME280;42542;48.360;10.958;2023-04-16T07:44:33;96043.97;;;7.05;100.00
56668;BME280;42542;48.360;10.958;2023-04-16T07:47:38;96062.66;;;7.14;100.00
56668;BME280;42542;48.360;10.958;2023-04-16T07:50:40;96065.63;;;7.20;100.00
56668;BME280;42542;48.360;10.958;2023-04-16T07:53:47;96066.28;;;7.22;100.00
56668;BME280;42542;48.360;10.958;2023-04-16T07:56:55;96063.88;;;7.29;100.00
56668;BME280;42542;48.360;10.958;2023-04-16T08:00:00;96080.78;;;7.37;100.00
56668;BME280;42542;48.360;10.958;2023-04-16T08:03:13;96069.69;;;7.42;100.00
56668;BME280;42542;48.360;10.958;2023-04-16T08:06:17;96083.56;;;7.45;100.00
56668;BME280;42542;48.360;10.958;2023-04-16T08:09:21;96081.16;;;7.52;100.00
56668;BME280;42542;48.360;10.958;2023-04-16T08:12:23;96081.72;;;7.56;100.00
56668;BME280;42542;48.360;10.958;2023-04-16T08:15:26;96088.13;;;7.63;100.00
56668;BME280;42542;48.360;10.958;2023-04-16T08:18:29;96089.22;;;7.70;100.00
56668;BME280;42542;48.360;10.958;2023-04-16T08:21:32;96096.44;;;7.77;100.00
56668;BME280;42542;48.360;10.958;2023-04-16T08:24:34;96095.84;;;7.83;100.00
56668;BME280;42542;48.360;10.958;2023-04-16T08:27:39;96092.47;;;7.91;100.00
56668;BME280;42542;48.360;10.958;2023-04-16T08:30:41;96094.50;;;7.97;100.00
56668;BME280;42542;48.360;10.958;2023-04-16T08:33:44;96094.75;;;8.04;100.00
56668;BME280;42542;48.360;10.958;2023-04-16T08:36:49;96100.16;;;8.12;100.00
56668;BME280;42542;48.360;10.958;2023-04-16T08:39:50;96103.22;;;8.17;100.00
56668;BME280;42542;48.360;10.958;2023-04-16T08:42:53;96112.97;;;8.26;100.00
56668;BME280;42542;48.360;10.958;2023-04-16T08:45:59;96113.94;;;8.35;100.00
56668;BME280;42542;48.360;10.958;2023-04-16T08:49:05;96106.03;;;8.43;100.00
56668;BME280;42542;48.360;10.958;2023-04-16T08:52:13;96102.91;;;8.47;100.00
56668;BME280;42542;48.360;10.958;2023-04-16T08:55:18;96110.56;;;8.50;100.00
56668;BME280;42542;48.360;10.958;2023-04-16T08:58:22;96111.25;;;8.52;100.00
56668;BME280;42542;48.360;10.958;2023-04-16T09:01:24;96116.16;;;8.57;100.00
56668;BME280;42542;48.360;10.958;2023-04-16T09:04:30;96110.66;;;8.58;100.00
56668;BME280;42542;48.360;10.958;2023-04-16T09:07:33;96123.34;;;8.65;100.00
56668;BME280;42542;48.360;10.958;2023-04-16T09:10:40;96123.34;;;8.65;100.00
56668;BME280;42542;48.360;10.958;2023-04-16T09:13:44;96126.03;;;8.65;100.00
56668;BME280;42542;48.360;10.958;2023-04-16T09:16:47;96130.38;;;8.66;100.00
56668;BME280;42542;48.360;10.958;2023-04-16T09:19:50;96122.38;;;8.66;100.00
56668;BME280;42542;48.360;10.958;2023-04-16T09:22:55;96124.75;;;8.69;100.00
56668;BME280;42542;48.360;10.958;2023-04-16T09:25:58;96118.94;;;8.73;100.00
56668;BME280;42542;48.360;10.958;2023-04-16T09:29:32;96118.03;;;8.82;100.00
56668;BME280;42542;48.360;10.958;2023-04-16T09:32:36;96127.09;;;8.89;100.00
56668;BME280;42542;48.360;10.958;2023-04-16T09:35:48;96128.69;;;9.00;100.00
56668;BME280;42542;48.360;10.958;2023-04-16T09:38:52;96120.06;;;9.06;100.00
56668;BME280;42542;48.360;10.958;2023-04-16T09:41:58;96115.47;;;9.16;100.00
56668;BME280;42542;48.360;10.958;2023-04-16T09:45:01;96119.88;;;9.25;100.00
56668;BME280;42542;48.360;10.958;2023-04-16T09:48:07;96114.75;;;9.32;100.00
56668;BME280;42542;48.360;10.958;2023-04-16T09:51:10;96111.78;;;9.35;100.00
56668;BME280;42542;48.360;10.958;2023-04-16T09:54:13;96117.47;;;9.40;100.00
56668;BME280;42542;48.360;10.958;2023-04-16T09:57:30;96123.84;;;9.47;100.00
56668;BME280;42542;48.360;10.958;2023-04-16T10:00:34;96122.38;;;9.53;100.00
56668;BME280;42542;48.360;10.958;2023-04-16T10:03:48;96131.44;;;9.60;100.00
56668;BME280;42542;48.360;10.958;2023-04-16T10:07:04;96136.91;;;9.58;99.50
56668;BME280;42542;48.360;10.958;2023-04-16T10:10:07;96123.56;;;9.50;99.10
56668;BME280;42542;48.360;10.958;2023-04-16T10:13:12;96128.06;;;9.50;99.85
56668;BME280;42542;48.360;10.958;2023-04-16T10:16:22;96134.44;;;9.57;100.00
56668;BME280;42542;48.360;10.958;2023-04-16T10:19:30;96136.47;;;9.63;100.00
56668;BME280;42542;48.360;10.958;2023-04-16T10:22:33;96135.13;;;9.67;100.00
56668;BME280;42542;48.360;10.958;2023-04-16T10:25:36;96135.53;;;9.72;100.00
56668;BME280;42542;48.360;10.958;2023-04-16T10:28:41;96133.56;;;9.82;100.00
56668;BME280;42542;48.360;10.958;2023-04-16T10:31:48;96134.59;;;9.89;100.00
56668;BME280;42542;48.360;10.958;2023-04-16T10:34:56;96149.66;;;9.98;100.00
56668;BME280;42542;48.360;10.958;2023-04-16T10:38:20;96143.00;;;10.02;99.49
56668;BME280;42542;48.360;10.958;2023-04-16T10:41:26;96138.50;;;10.03;97.29
56668;BME280;42542;48.360;10.958;2023-04-16T10:44:31;96142.69;;;10.05;97.12
56668;BME280;42542;48.360;10.958;2023-04-16T10:47:39;96147.22;;;10.13;98.01
56668;BME280;42542;48.360;10.958;2023-04-16T10:50:41;96144.22;;;10.16;95.61
56668;BME280;42542;48.360;10.958;2023-04-16T10:53:46;96146.09;;;10.24;96.18
56668;BME280;42542;48.360;10.958;2023-04-16T10:56:51;96144.47;;;10.31;96.29
56668;BME280;42542;48.360;10.958;2023-04-16T10:59:53;96140.34;;;10.36;95.85
56668;BME280;42542;48.360;10.958;2023-04-16T11:02:57;96145.84;;;10.43;94.99
56668;BME280;42542;48.360;10.958;2023-04-16T11:06:29;96145.03;;;10.50;95.73
56668;BME280;42542;48.360;10.958;2023-04-16T11:09:51;96147.03;;;10.48;93.41
56668;BME280;42542;48.360;10.958;2023-04-16T11:12:54;96133.50;;;10.42;93.77
56668;BME280;42542;48.360;10.958;2023-04-16T11:15:57;96145.19;;;10.41;94.01
56668;BME280;42542;48.360;10.958;2023-04-16T11:19:02;96151.69;;;10.46;94.45
56668;BME280;42542;48.360;10.958;2023-04-16T11:22:04;96142.00;;;10.45;95.24
56668;BME280;42542;48.360;10.958;2023-04-16T11:25:06;96141.00;;;10.46;94.76
56668;BME280;42542;48.360;10.958;2023-04-16T11:28:09;96148.88;;;10.48;94.66
56668;BME280;42542;48.360;10.958;2023-04-16T11:31:10;96149.72;;;10.48;94.55
56668;BME280;42542;48.360;10.958;2023-04-16T11:34:14;96150.22;;;10.44;94.12
56668;BME280;42542;48.360;10.958;2023-04-16T11:37:21;96155.56;;;10.44;94.25
56668;BME280;42542;48.360;10.958;2023-04-16T11:40:34;96150.84;;;10.38;93.59
56668;BME280;42542;48.360;10.958;2023-04-16T11:43:36;96158.00;;;10.29;93.50
56668;BME280;42542;48.360;10.958;2023-04-16T11:46:39;96155.66;;;10.26;94.43
56668;BME280;42542;48.360;10.958;2023-04-16T11:49:44;96160.31;;;10.24;95.75
56668;BME280;42542;48.360;10.958;2023-04-16T11:52:52;96165.16;;;10.21;95.53
56668;BME280;42542;48.360;10.958;2023-04-16T11:56:01;96163.75;;;10.16;95.78
56668;BME280;42542;48.360;10.958;2023-04-16T11:59:14;96167.22;;;10.09;94.89
56668;BME280;42542;48.360;10.958;2023-04-16T12:02:33;96166.56;;;10.07;96.55
56668;BME280;42542;48.360;10.958;2023-04-16T12:05:39;96167.88;;;10.03;96.53
56668;BME280;42542;48.360;10.958;2023-04-16T12:08:44;96164.16;;;9.96;96.14
56668;BME280;42542;48.360;10.958;2023-04-16T12:11:47;96164.50;;;9.93;96.54
56668;BME280;42542;48.360;10.958;2023-04-16T12:14:52;96170.47;;;9.87;96.05
56668;BME280;42542;48.360;10.958;2023-04-16T12:18:06;96169.94;;;9.83;96.42
56668;BME280;42542;48.360;10.958;2023-04-16T12:21:08;96171.78;;;9.83;96.85
56668;BME280;42542;48.360;10.958;2023-04-16T12:25:15;96166.75;;;9.79;97.25
56668;BME280;42542;48.360;10.958;2023-04-16T12:28:32;96170.72;;;9.75;96.18
56668;BME280;42542;48.360;10.958;2023-04-16T12:31:37;96173.19;;;9.69;95.78
56668;BME280;42542;48.360;10.958;2023-04-16T12:34:49;96177.53;;;9.70;96.49
56668;BME280;42542;48.360;10.958;2023-04-16T12:37:52;96169.69;;;9.68;96.98
56668;BME280;42542;48.360;10.958;2023-04-16T12:40:55;96168.69;;;9.69;96.03
56668;BME280;42542;48.360;10.958;2023-04-16T12:44:07;96177.69;;;9.68;97.02
56668;BME280;42542;48.360;10.958;2023-04-16T12:47:10;96169.84;;;9.67;96.41
56668;BME280;42542;48.360;10.958;2023-04-16T12:50:11;96180.50;;;9.67;97.40
56668;BME280;42542;48.360;10.958;2023-04-16T12:53:14;96176.16;;;9.66;97.37
56668;BME280;42542;48.360;10.958;2023-04-16T12:56:15;96182.81;;;9.62;97.48
56668;BME280;42542;48.360;10.958;2023-04-16T12:59:18;96177.78;;;9.59;96.84
56668;BME280;42542;48.360;10.958;2023-04-16T13:02:41;96176.44;;;9.55;96.85
56668;BME280;42542;48.360;10.958;2023-04-16T13:05:43;96167.09;;;9.51;96.36
56668;BME280;42542;48.360;10.958;2023-04-16T13:08:46;96176.91;;;9.50;97.08
56668;BME280;42542;48.360;10.958;2023-04-16T13:11:48;96175.75;;;9.53;96.57
56668;BME280;42542;48.360;10.958;2023-04-16T13:14:50;96173.91;;;9.53;97.24
56668;BME280;42542;48.360;10.958;2023-04-16T13:17:53;96172.09;;;9.54;97.35
56668;BME280;42542;48.360;10.958;2023-04-16T13:20:55;96177.44;;;9.54;96.67
56668;BME280;42542;48.360;10.958;2023-04-16T13:23:58;96181.09;;;9.53;97.33
56668;BME280;42542;48.360;10.958;2023-04-16T13:27:01;96177.44;;;9.54;97.44
56668;BME280;42542;48.360;10.958;2023-04-16T13:30:25;96188.09;;;9.54;98.64
56668;BME280;42542;48.360;10.958;2023-04-16T13:33:33;96176.72;;;9.52;99.13
56668;BME280;42542;48.360;10.958;2023-04-16T13:36:39;96184.28;;;9.56;98.68
56668;BME280;42542;48.360;10.958;2023-04-16T13:39:42;96184.44;;;9.55;99.06
56668;BME280;42542;48.360;10.958;2023-04-16T13:42:46;96184.28;;;9.56;99.28
56668;BME280;42542;48.360;10.958;2023-04-16T13:45:48;96184.94;;;9.58;100.00
56668;BME280;42542;48.360;10.958;2023-04-16T13:48:49;96188.47;;;9.59;99.37
56668;BME280;42542;48.360;10.958;2023-04-16T13:51:54;96182.75;;;9.54;98.37
56668;BME280;42542;48.360;10.958;2023-04-16T13:54:58;96187.25;;;9.53;97.44
56668;BME280;42542;48.360;10.958;2023-04-16T13:58:01;96180.44;;;9.51;96.98
56668;BME280;42542;48.360;10.958;2023-04-16T14:01:03;96182.06;;;9.52;96.98
56668;BME280;42542;48.360;10.958;2023-04-16T14:04:06;96185.91;;;9.49;97.23
56668;BME280;42542;48.360;10.958;2023-04-16T14:07:07;96188.94;;;9.54;97.95
56668;BME280;42542;48.360;10.958;2023-04-16T14:10:09;96184.94;;;9.58;98.78
56668;BME280;42542;48.360;10.958;2023-04-16T14:13:11;96185.78;;;9.59;98.12
56668;BME280;42542;48.360;10.958;2023-04-16T14:16:14;96188.16;;;9.62;97.27
56668;BME280;42542;48.360;10.958;2023-04-16T14:19:16;96187.53;;;9.68;98.18
56668;BME280;42542;48.360;10.958;2023-04-16T14:22:17;96180.91;;;9.72;98.37
56668;BME280;42542;48.360;10.958;2023-04-16T14:25:20;96189.31;;;9.85;98.90
56668;BME280;42542;48.360;10.958;2023-04-16T14:28:22;96178.31;;;9.88;97.07
56668;BME280;42542;48.360;10.958;2023-04-16T14:31:24;96189.88;;;9.97;98.22
56668;BME280;42542;48.360;10.958;2023-04-16T14:34:26;96190.41;;;10.00;96.80
56668;BME280;42542;48.360;10.958;2023-04-16T14:37:29;96186.41;;;10.04;95.76
56668;BME280;42542;48.360;10.958;2023-04-16T14:40:33;96195.94;;;10.07;95.45
56668;BME280;42542;48.360;10.958;2023-04-16T14:43:35;96198.75;;;10.05;94.96
56668;BME280;42542;48.360;10.958;2023-04-16T14:46:40;96194.56;;;10.03;96.19
56668;BME280;42542;48.360;10.958;2023-04-16T14:49:43;96194.25;;;10.06;96.54
56668;BME280;42542;48.360;10.958;2023-04-16T14:52:46;96200.44;;;10.06;96.78
56668;BME280;42542;48.360;10.958;2023-04-16T14:55:47;96199.06;;;10.02;96.70
56668;BME280;42542;48.360;10.958;2023-04-16T14:58:49;96201.38;;;9.97;97.11
56668;BME280;42542;48.360;10.958;2023-04-16T15:01:54;96201.69;;;9.94;96.76
56668;BME280;42542;48.360;10.958;2023-04-16T15:04:56;96207.50;;;9.90;96.65
56668;BME280;42542;48.360;10.958;2023-04-16T15:07:58;96204.44;;;9.76;96.76
56668;BME280;42542;48.360;10.958;2023-04-16T15:11:00;96215.97;;;9.77;97.46
56668;BME280;42542;48.360;10.958;2023-04-16T15:14:03;96219.41;;;9.69;96.65
56668;BME280;42542;48.360;10.958;2023-04-16T15:17:05;96210.34;;;9.62;97.00
56668;BME280;42542;48.360;10.958;2023-04-16T15:20:07;96211.63;;;9.58;97.88
56668;BME280;42542;48.360;10.958;2023-04-16T15:23:10;96219.91;;;9.47;97.75
56668;BME280;42542;48.360;10.958;2023-04-16T15:26:13;96223.19;;;9.41;99.10
56668;BME280;42542;48.360;10.958;2023-04-16T15:29:14;96227.78;;;9.31;99.41
56668;BME280;42542;48.360;10.958;2023-04-16T15:32:16;96218.69;;;9.24;100.00
56668;BME280;42542;48.360;10.958;2023-04-16T15:35:18;96228.16;;;9.18;100.00
56668;BME280;42542;48.360;10.958;2023-04-16T15:38:21;96226.81;;;9.14;100.00
56668;BME280;42542;48.360;10.958;2023-04-16T15:41:24;96232.28;;;9.13;100.00
56668;BME280;42542;48.360;10.958;2023-04-16T15:44:32;96221.53;;;9.05;100.00
56668;BME280;42542;48.360;10.958;2023-04-16T15:47:44;96229.69;;;9.03;100.00
56668;BME280;42542;48.360;10.958;2023-04-16T15:50:52;96229.47;;;8.96;100.00
56668;BME280;42542;48.360;10.958;2023-04-16T15:53:54;96228.75;;;8.94;100.00
56668;BME280;42542;48.360;10.958;2023-04-16T15:56:58;96237.91;;;8.92;100.00
56668;BME280;42542;48.360;10.958;2023-04-16T16:00:04;96239.88;;;8.90;100.00
56668;BME280;42542;48.360;10.958;2023-04-16T16:03:16;96239.75;;;8.91;100.00
56668;BME280;42542;48.360;10.958;2023-04-16T16:06:18;96245.91;;;8.92;100.00
56668;BME280;42542;48.360;10.958;2023-04-16T16:09:22;96243.25;;;8.92;100.00